Time;durP1;ratioP1;P1;durP2;ratioP2;P2;SDS_P1;SDS_P2;PMS_P1;PMS_P2;Temp;Humidity;BMP_temperature;BMP_pressure;BME280_temperature;BME280_humidity;BME280_pressure;Samples;Min_cycle;Max_cycle;Signal;HPM_P1;HPM_P2
2023/04/23 00:02:21;;;;;;;5.28;4.88;;;12.90;99.90;;;13.70;100.00;97286.69;5112617;28;20538;-62
2023/04/23 00:04:57;;;;;;;5.38;4.97;;;12.80;99.90;;;13.66;100.00;97289.97;5109327;28;20216;-62
2023/04/23 00:07:33;;;;;;;5.68;5.28;;;12.80;99.90;;;13.64;100.00;97281.34;5107106;28;20204;-62
2023/04/23 00:10:08;;;;;;;5.88;5.38;;;12.70;99.90;;;13.63;100.00;97284.75;5111130;28;20238;-62
2023/04/23 00:12:42;;;;;;;5.82;5.22;;;12.80;99.90;;;13.58;100.00;97281.13;5112747;28;20632;-62
2023/04/23 00:15:16;;;;;;;5.50;5.10;;;12.70;99.90;;;13.59;100.00;97277.72;5114052;28;20197;-62
2023/04/23 00:17:50;;;;;;;5.90;5.40;;;12.70;99.90;;;13.59;100.00;97282.88;5112017;28;20231;-62
2023/04/23 00:20:24;;;;;;;6.18;5.65;;;12.70;99.90;;;13.63;100.00;97277.03;5112141;28;20827;-63
2023/04/23 00:22:57;;;;;;;5.95;5.43;;;12.70;99.90;;;13.64;100.00;97269.38;5112194;28;20211;-62
2023/04/23 00:25:30;;;;;;;5.68;5.18;;;12.80;99.90;;;13.67;100.00;97274.63;5113486;28;20205;-62
2023/04/23 00:28:03;;;;;;;6.55;6.05;;;12.80;99.90;;;13.75;100.00;97274.88;5116553;29;20217;-62
2023/04/23 00:30:36;;;;;;;6.18;5.68;;;12.80;99.90;;;13.68;100.00;97280.66;5114547;28;20605;-62
2023/04/23 00:33:10;;;;;;;6.30;5.80;;;12.80;99.90;;;13.63;100.00;97279.59;5113401;28;20209;-63
2023/04/23 00:35:43;;;;;;;6.32;5.75;;;12.70;99.90;;;13.52;100.00;97281.78;5113005;28;20200;-62
2023/04/23 00:38:16;;;;;;;5.95;5.45;;;12.60;99.90;;;13.50;100.00;97280.84;5114141;28;20239;-62
2023/04/23 00:40:49;;;;;;;6.47;5.88;;;12.60;99.90;;;13.48;100.00;97267.09;5111587;28;20204;-62
2023/04/23 00:43:22;;;;;;;6.18;5.68;;;12.60;99.90;;;13.40;100.00;97281.34;5112846;28;20223;-63
2023/04/23 00:45:56;;;;;;;7.05;6.30;;;12.50;99.90;;;13.32;100.00;97273.34;5109058;28;20205;-62
2023/04/23 00:48:32;;;;;;;6.55;5.95;;;12.50;99.90;;;13.34;100.00;97276.84;5115070;28;20239;-62
2023/04/23 00:51:06;;;;;;;6.10;5.47;;;12.50;99.90;;;13.42;100.00;97278.03;5114120;28;20548;-63
2023/04/23 00:53:39;;;;;;;6.53;5.97;;;12.60;99.90;;;13.51;100.00;97275.78;5116940;28;20204;-62
2023/04/23 00:56:12;;;;;;;5.93;5.43;;;12.60;99.90;;;13.61;100.00;97278.66;5109169;28;20197;-62
2023/04/23 00:58:46;;;;;;;6.15;5.65;;;12.70;99.90;;;13.61;100.00;97276.09;5107287;28;20224;-64
2023/04/23 01:01:19;;;;;;;6.50;5.90;;;12.80;99.90;;;13.64;100.00;97276.19;5111068;28;20220;-62
2023/04/23 01:03:55;;;;;;;6.25;5.75;;;12.80;99.90;;;13.60;100.00;97280.38;5113628;28;20228;-63
2023/04/23 01:06:30;;;;;;;5.97;5.40;;;12.80;99.90;;;13.62;100.00;97283.88;5108084;28;20669;-63
2023/04/23 01:09:04;;;;;;;7.18;6.57;;;12.80;99.90;;;13.65;100.00;97289.13;5112929;28;20228;-62
2023/04/23 01:11:42;;;;;;;6.25;5.75;;;12.80;99.90;;;13.70;100.00;97286.69;5115982;28;20222;-63
2023/04/23 01:14:15;;;;;;;6.22;5.70;;;12.80;99.90;;;13.68;100.00;97290.91;5115200;29;20204;-62
2023/04/23 01:16:51;;;;;;;5.78;5.22;;;12.80;99.90;;;13.66;100.00;97290.84;5112155;28;20588;-64
2023/04/23 01:19:26;;;;;;;5.80;5.30;;;12.80;99.90;;;13.66;100.00;97300.25;5117576;28;20228;-63
2023/04/23 01:22:01;;;;;;;6.45;5.95;;;12.80;99.90;;;13.65;100.00;97296.81;5114748;28;20204;-62
2023/04/23 01:24:35;;;;;;;5.85;5.40;;;12.80;99.90;;;13.62;100.00;97291.56;5112076;28;20601;-64
2023/04/23 01:27:09;;;;;;;6.50;5.90;;;12.80;99.90;;;13.64;100.00;97300.19;5114502;28;20196;-63
2023/04/23 01:29:42;;;;;;;5.30;4.90;;;12.80;99.90;;;13.64;100.00;97289.91;5111738;28;20231;-63
2023/04/23 01:32:16;;;;;;;5.18;4.78;;;12.80;99.90;;;13.64;100.00;97302.75;5115287;28;20209;-63
2023/04/23 01:34:50;;;;;;;5.40;4.47;;;12.80;99.90;;;13.65;100.00;97298.50;5114979;28;20252;-64
2023/04/23 01:37:24;;;;;;;5.50;5.10;;;12.80;99.90;;;13.65;100.00;97303.63;5111222;28;20220;-64
2023/04/23 01:39:59;;;;;;;5.65;5.25;;;12.80;99.90;;;13.65;100.00;97309.66;5116192;29;20208;-62
2023/04/23 01:42:32;;;;;;;5.38;4.93;;;12.80;99.90;;;13.65;100.00;97319.03;5111462;28;20205;-64
2023/04/23 01:45:07;;;;;;;5.45;4.93;;;12.80;99.90;;;13.62;100.00;97313.78;5111458;28;20696;-62
2023/04/23 01:47:41;;;;;;;5.43;5.00;;;12.80;99.90;;;13.52;100.00;97312.59;5111322;28;21843;-64
2023/04/23 01:50:15;;;;;;;5.70;5.07;;;12.70;99.90;;;13.50;100.00;97315.09;5113848;28;20757;-64
2023/04/23 01:52:48;;;;;;;4.60;4.30;;;12.70;99.90;;;13.46;100.00;97313.25;5113549;28;20208;-62
2023/04/23 01:55:22;;;;;;;5.88;5.28;;;12.70;99.90;;;13.43;100.00;97313.13;5117077;28;20197;-64
2023/04/23 01:57:56;;;;;;;5.70;5.20;;;12.70;99.90;;;13.41;100.00;97314.75;5111090;28;20226;-64
2023/04/23 02:00:29;;;;;;;4.53;4.20;;;12.60;99.90;;;13.55;99.65;97324.66;5115781;28;20574;-64
2023/04/23 02:03:02;;;;;;;5.82;4.53;;;12.70;99.90;;;13.66;95.69;97331.06;5115581;28;20598;-64
2023/04/23 02:05:36;;;;;;;5.50;4.95;;;12.80;99.90;;;13.56;97.36;97334.97;5111093;28;20224;-63
2023/04/23 02:08:10;;;;;;;5.43;5.00;;;12.90;99.90;;;13.57;98.77;97330.75;5113436;28;20211;-64
2023/04/23 02:10:45;;;;;;;5.07;4.57;;;12.80;99.90;;;13.54;98.38;97336.63;5112939;28;20213;-63
2023/04/23 02:13:18;;;;;;;4.70;4.30;;;12.80;99.90;;;13.57;98.48;97341.00;5112002;28;20219;-64
2023/04/23 02:15:51;;;;;;;4.45;4.03;;;12.80;99.90;;;13.70;95.27;97333.78;5116593;28;20200;-63
2023/04/23 02:18:24;;;;;;;4.45;4.05;;;12.80;99.90;;;13.60;96.61;97344.56;5108790;28;20252;-64
2023/04/23 02:20:58;;;;;;;4.13;3.83;;;12.80;99.90;;;13.55;95.55;97343.50;5110518;28;20216;-63
2023/04/23 02:23:31;;;;;;;4.15;3.67;;;12.80;99.90;;;13.59;95.42;97347.06;5112345;28;20208;-63
2023/04/23 02:26:06;;;;;;;5.05;4.15;;;12.80;99.90;;;13.58;95.30;97338.47;5113632;28;20229;-63
2023/04/23 02:28:40;;;;;;;5.07;3.50;;;12.80;99.90;;;13.65;94.65;97335.34;5106683;28;20319;-64
2023/04/23 02:31:13;;;;;;;3.75;3.40;;;12.90;99.90;;;13.61;94.16;97338.59;5114169;28;20204;-63
2023/04/23 02:33:46;;;;;;;3.92;3.53;;;12.90;99.90;;;13.72;93.32;97350.13;5114240;28;20212;-63
2023/04/23 02:36:19;;;;;;;3.42;3.22;;;12.90;99.90;;;13.66;93.15;97341.34;5107227;28;20201;-64
2023/04/23 02:38:52;;;;;;;4.00;3.65;;;12.90;99.90;;;13.61;94.09;97343.72;5112468;28;20233;-65
2023/04/23 02:41:27;;;;;;;3.65;3.45;;;12.90;99.90;;;13.55;94.80;97347.78;5114746;28;20216;-63
2023/04/23 02:44:00;;;;;;;3.55;3.25;;;12.90;99.90;;;13.46;96.58;97344.03;5112184;28;20204;-64
2023/04/23 02:46:35;;;;;;;4.10;3.80;;;12.90;99.90;;;13.39;97.01;97342.09;5113248;28;20232;-62
2023/04/23 02:49:08;;;;;;;3.72;3.40;;;12.80;99.90;;;13.35;97.75;97352.16;5114938;28;20266;-63
2023/04/23 02:51:41;;;;;;;3.88;3.55;;;12.80;99.90;;;13.37;98.32;97340.28;5115720;28;20652;-63
2023/04/23 02:54:14;;;;;;;3.60;3.28;;;12.70;99.90;;;13.32;99.27;97341.78;5112019;28;20198;-64
2023/04/23 02:56:49;;;;;;;4.03;3.70;;;12.70;99.90;;;13.37;97.19;97340.28;5112642;28;20208;-63
2023/04/23 02:59:22;;;;;;;3.83;3.53;;;12.70;99.90;;;13.24;99.62;97352.59;5113805;28;20228;-64
2023/04/23 03:01:55;;;;;;;4.07;3.78;;;12.60;99.90;;;13.21;100.00;97331.94;5114437;28;20201;-63
2023/04/23 03:04:32;;;;;;;5.22;3.90;;;12.60;99.90;;;13.18;100.00;97329.25;5116526;28;20208;-65
2023/04/23 03:07:05;;;;;;;3.83;3.53;;;12.60;99.90;;;13.11;100.00;97339.25;5111225;28;20205;-63
2023/04/23 03:09:38;;;;;;;4.95;4.10;;;12.50;99.90;;;13.03;100.00;97350.06;5114996;28;20228;-63
2023/04/23 03:12:12;;;;;;;4.10;3.80;;;12.50;99.90;;;12.98;100.00;97349.00;5113602;28;20208;-63
2023/04/23 03:14:45;;;;;;;3.88;3.58;;;12.40;99.90;;;12.92;100.00;97348.78;5107015;28;20200;-63
2023/04/23 03:17:18;;;;;;;4.20;3.83;;;12.40;99.90;;;12.90;100.00;97350.41;5113787;28;20209;-64
2023/04/23 03:19:51;;;;;;;4.45;4.05;;;12.30;99.90;;;12.88;100.00;97351.16;5117286;28;20223;-63
2023/04/23 03:22:24;;;;;;;4.18;3.88;;;12.30;99.90;;;12.84;100.00;97353.59;5112154;29;20678;-63
2023/04/23 03:24:57;;;;;;;3.92;3.63;;;12.30;99.90;;;12.81;100.00;97342.34;5114885;28;20224;-63
2023/04/23 03:27:32;;;;;;;5.05;4.20;;;12.20;99.90;;;12.82;100.00;97351.81;5112078;28;20673;-64
2023/04/23 03:30:07;;;;;;;4.80;4.35;;;12.20;99.90;;;12.80;100.00;97343.16;5109205;28;20209;-63
2023/04/23 03:32:40;;;;;;;4.35;3.85;;;12.20;99.90;;;12.68;100.00;97351.25;5113445;28;20204;-63
2023/04/23 03:35:13;;;;;;;4.93;4.43;;;12.10;99.90;;;12.60;100.00;97348.38;5109621;28;20225;-62
2023/04/23 03:37:46;;;;;;;5.05;4.43;;;12.00;99.90;;;12.55;100.00;97352.41;5110740;28;20311;-63
2023/04/23 03:40:20;;;;;;;4.57;4.15;;;11.90;99.90;;;12.55;100.00;97337.03;5110858;28;20209;-63
2023/04/23 03:42:56;;;;;;;4.95;4.30;;;11.90;99.90;;;12.53;100.00;97348.03;5108195;28;20220;-64
2023/04/23 03:45:30;;;;;;;4.82;4.43;;;11.90;99.90;;;12.50;100.00;97355.59;5110378;28;20809;-64
2023/04/23 03:48:04;;;;;;;4.70;4.30;;;11.90;99.90;;;12.51;100.00;97349.69;5108860;28;20236;-64
2023/04/23 03:50:39;;;;;;;5.18;4.57;;;11.90;99.90;;;12.53;100.00;97338.69;5112066;28;20216;-64
2023/04/23 03:53:12;;;;;;;5.22;4.72;;;11.90;99.90;;;12.48;100.00;97342.75;5100224;28;20215;-63
2023/04/23 03:55:45;;;;;;;5.47;4.97;;;11.80;99.90;;;12.40;100.00;97346.66;5108442;28;20201;-64
2023/04/23 03:58:20;;;;;;;5.55;5.05;;;11.80;99.90;;;12.38;100.00;97349.16;5105204;28;20217;-62
2023/04/23 04:00:53;;;;;;;5.13;4.72;;;11.70;99.90;;;12.35;100.00;97348.16;5106840;28;20847;-63
2023/04/23 04:03:26;;;;;;;5.57;5.13;;;11.70;99.90;;;12.36;100.00;97349.91;5110148;28;20209;-64
2023/04/23 04:05:59;;;;;;;5.45;4.95;;;11.70;99.90;;;12.33;100.00;97344.66;5111401;28;20236;-64
2023/04/23 04:08:32;;;;;;;5.90;5.30;;;11.70;99.90;;;12.34;100.00;97356.69;5110841;28;20254;-63
2023/04/23 04:11:05;;;;;;;5.13;4.72;;;11.70;99.90;;;12.34;100.00;97357.53;5112460;28;20557;-63
2023/04/23 04:13:40;;;;;;;5.40;4.93;;;11.60;99.90;;;12.28;100.00;97352.16;5106441;28;20208;-65
2023/04/23 04:16:13;;;;;;;5.65;5.15;;;11.60;99.90;;;12.28;100.00;97351.28;5109317;28;20212;-64
2023/04/23 04:18:46;;;;;;;5.55;4.68;;;11.60;99.90;;;12.26;100.00;97347.78;5115201;28;20224;-63
2023/04/23 04:21:19;;;;;;;5.45;4.95;;;11.60;99.90;;;12.25;100.00;97356.28;5110011;28;20597;-64
2023/04/23 04:23:52;;;;;;;5.80;5.20;;;11.60;99.90;;;12.28;100.00;97351.28;5112918;28;20212;-64
2023/04/23 04:26:25;;;;;;;6.00;5.20;;;11.60;99.90;;;12.22;100.00;97351.00;5110440;28;20656;-64
2023/04/23 04:29:00;;;;;;;5.32;4.82;;;11.60;99.90;;;12.24;100.00;97349.41;5104235;28;20696;-64
2023/04/23 04:31:34;;;;;;;5.00;4.40;;;11.50;99.90;;;12.26;100.00;97358.91;5113947;28;20208;-62
2023/04/23 04:34:09;;;;;;;5.10;4.70;;;11.60;99.90;;;12.24;100.00;97362.22;5114608;28;20652;-64
2023/04/23 04:36:42;;;;;;;5.70;4.93;;;11.60;99.90;;;12.30;100.00;97370.16;5109109;28;20685;-63
2023/04/23 04:39:15;;;;;;;4.60;4.18;;;11.60;99.90;;;12.39;100.00;97361.19;5115494;28;20221;-63
2023/04/23 04:41:48;;;;;;;6.10;4.13;;;11.60;99.90;;;12.33;100.00;97365.16;5107112;28;20578;-63
2023/04/23 04:44:24;;;;;;;5.35;4.47;;;11.70;99.90;;;12.47;100.00;97368.31;5108592;28;20212;-63
2023/04/23 04:46:57;;;;;;;5.47;5.03;;;11.70;99.90;;;12.42;100.00;97360.44;5107867;28;20680;-63
2023/04/23 04:49:30;;;;;;;5.13;4.70;;;11.70;99.90;;;12.49;100.00;97366.69;5108863;28;20233;-63
2023/04/23 04:52:03;;;;;;;5.07;4.55;;;11.70;99.90;;;12.37;100.00;97364.50;5113917;28;20207;-64
2023/04/23 04:54:36;;;;;;;5.38;4.97;;;11.70;99.90;;;12.40;100.00;97362.91;5108123;28;20208;-63
2023/04/23 04:57:09;;;;;;;5.25;4.85;;;11.70;99.90;;;12.38;100.00;97377.34;5106817;28;20205;-63
2023/04/23 04:59:44;;;;;;;4.68;4.28;;;11.70;99.90;;;12.39;100.00;97362.88;5109044;28;20267;-63
2023/04/23 05:02:18;;;;;;;4.55;4.15;;;11.70;99.90;;;12.43;100.00;97371.56;5107827;28;20577;-63
2023/04/23 05:04:52;;;;;;;4.60;4.30;;;11.70;99.90;;;12.37;100.00;97361.94;5104278;28;20212;-63
2023/04/23 05:07:25;;;;;;;4.47;4.07;;;11.70;99.90;;;12.42;100.00;97360.44;5110520;28;20232;-64
2023/04/23 05:09:58;;;;;;;6.72;3.92;;;11.70;99.90;;;12.42;100.00;97365.56;5111661;28;20559;-64
2023/04/23 05:12:31;;;;;;;4.65;4.35;;;11.70;99.90;;;12.40;100.00;97378.31;5105252;28;20211;-63
2023/04/23 05:15:08;;;;;;;4.88;4.40;;;11.80;99.90;;;12.44;100.00;97370.75;5108693;28;20216;-64
2023/04/23 05:17:41;;;;;;;5.13;4.65;;;11.80;99.90;;;12.47;100.00;97370.88;5109276;28;20573;-64
2023/04/23 05:20:14;;;;;;;5.03;4.63;;;11.80;99.90;;;12.48;100.00;97360.69;5111495;28;20701;-63
2023/04/23 05:22:48;;;;;;;4.60;4.28;;;11.80;99.90;;;12.38;100.00;97366.22;5110115;28;20202;-64
2023/04/23 05:25:21;;;;;;;4.47;4.18;;;11.70;99.90;;;12.40;100.00;97362.91;5108578;28;20683;-65
2023/04/23 05:27:54;;;;;;;4.68;4.28;;;11.70;99.90;;;12.34;100.00;97366.94;5109975;28;20737;-63
2023/04/23 05:30:29;;;;;;;4.78;4.38;;;11.70;99.90;;;12.40;100.00;97367.19;5107638;28;20235;-63
2023/04/23 05:33:02;;;;;;;4.93;4.57;;;11.70;99.90;;;12.40;100.00;97357.78;5111630;28;20212;-64
2023/04/23 05:35:35;;;;;;;5.07;4.68;;;11.70;99.90;;;12.43;100.00;97367.31;5109153;28;20263;-64
2023/04/23 05:38:09;;;;;;;5.05;4.68;;;11.70;99.90;;;12.40;100.00;97368.06;5108454;28;20696;-64
2023/04/23 05:40:42;;;;;;;4.72;4.32;;;11.70;99.90;;;12.39;100.00;97366.31;5112426;28;20201;-64
2023/04/23 05:43:15;;;;;;;5.40;5.00;;;11.70;99.90;;;12.42;100.00;97365.56;5111563;28;20689;-64
2023/04/23 05:45:49;;;;;;;5.57;5.07;;;11.70;99.90;;;12.60;100.00;97366.31;5106288;28;20206;-64
2023/04/23 05:48:22;;;;;;;5.60;5.10;;;12.00;99.90;;;12.91;100.00;97371.81;5115125;28;20629;-65
2023/04/23 05:50:56;;;;;;;5.65;5.15;;;12.30;99.90;;;13.35;100.00;97371.00;5109804;28;20200;-63
2023/04/23 05:53:29;;;;;;;4.80;4.40;;;12.60;99.90;;;13.43;100.00;97368.75;5115872;28;20314;-63
2023/04/23 05:56:02;;;;;;;4.65;4.28;;;12.60;99.90;;;13.47;100.00;97368.03;5109697;28;20216;-63
2023/04/23 05:58:35;;;;;;;4.47;4.07;;;12.60;99.90;;;13.50;100.00;97373.28;5114983;28;20232;-63
2023/04/23 06:01:10;;;;;;;4.38;4.05;;;12.70;99.90;;;13.65;100.00;97375.53;5108139;28;20209;-63
2023/04/23 06:03:44;;;;;;;3.45;3.15;;;12.80;99.90;;;13.69;100.00;97372.28;5111368;28;20664;-64
2023/04/23 06:06:17;;;;;;;4.72;4.25;;;12.80;99.90;;;13.76;100.00;97369.09;5113137;28;20204;-64
2023/04/23 06:08:50;;;;;;;4.05;3.70;;;12.80;99.90;;;13.71;100.00;97375.78;5106977;28;20623;-63
2023/04/23 06:11:24;;;;;;;4.80;4.38;;;12.80;99.90;;;13.70;100.00;97367.19;5116759;28;20221;-63
2023/04/23 06:13:56;;;;;;;3.67;3.42;;;12.80;99.90;;;13.69;100.00;97372.28;5115054;28;20656;-63
2023/04/23 06:16:31;;;;;;;3.65;3.35;;;12.80;99.90;;;13.61;100.00;97369.41;5117094;28;20216;-63
2023/04/23 06:19:05;;;;;;;4.90;4.50;;;12.70;99.90;;;13.61;100.00;97369.41;5115007;28;20220;-65
2023/04/23 06:21:38;;;;;;;4.25;3.85;;;12.70;99.90;;;13.51;100.00;97370.78;5115241;28;20557;-64
2023/04/23 06:24:11;;;;;;;4.93;4.22;;;12.70;99.90;;;13.46;100.00;97368.84;5113307;28;20206;-63
2023/04/23 06:26:44;;;;;;;4.40;4.07;;;12.60;99.90;;;13.47;100.00;97360.31;5115314;28;20235;-64
2023/04/23 06:29:17;;;;;;;4.38;4.05;;;12.60;99.90;;;13.48;100.00;97369.78;5116100;28;20224;-63
2023/04/23 06:31:55;;;;;;;4.30;4.00;;;12.60;99.90;;;13.52;100.00;97369.06;5115986;28;20204;-64
2023/04/23 06:34:28;;;;;;;4.60;4.20;;;12.70;99.90;;;13.69;100.00;97370.56;5114532;28;20265;-63
2023/04/23 06:37:01;;;;;;;4.90;4.50;;;12.80;99.90;;;13.62;100.00;97371.19;5115597;28;20215;-63
2023/04/23 06:39:34;;;;;;;4.78;4.38;;;12.70;99.90;;;13.54;100.00;97371.72;5113747;28;20637;-63
2023/04/23 06:42:07;;;;;;;5.13;4.72;;;12.70;99.90;;;13.50;100.00;97371.56;5115691;28;20201;-64
2023/04/23 06:44:40;;;;;;;4.55;4.20;;;12.60;99.90;;;13.47;100.00;97363.75;5111515;28;20209;-63
2023/04/23 06:47:15;;;;;;;4.93;4.50;;;12.60;99.90;;;13.45;100.00;97367.97;5107431;28;20221;-63
2023/04/23 06:49:48;;;;;;;5.25;4.80;;;12.60;99.90;;;13.64;100.00;97373.78;5113222;28;20204;-63
2023/04/23 06:52:21;;;;;;;5.22;4.82;;;12.70;99.90;;;13.63;100.00;97367.78;5115143;28;20303;-63
2023/04/23 06:54:54;;;;;;;5.53;5.13;;;12.80;99.90;;;13.65;100.00;97362.69;5113611;28;20209;-63
2023/04/23 06:57:28;;;;;;;5.13;4.72;;;12.80;99.90;;;13.73;100.00;97361.28;5111444;28;20201;-64
2023/04/23 07:00:02;;;;;;;4.57;4.18;;;12.80;99.90;;;13.75;100.00;97362.22;5108004;28;20208;-63
2023/04/23 07:02:36;;;;;;;3.63;3.33;;;12.90;99.90;;;13.86;100.00;97357.47;5110751;28;20202;-63
2023/04/23 07:05:10;;;;;;;3.78;3.58;;;12.90;99.90;;;13.82;100.00;97359.06;5114696;28;20223;-64
2023/04/23 07:07:43;;;;;;;4.00;3.70;;;12.90;99.90;;;13.81;100.00;97354.72;5107966;28;20232;-64
2023/04/23 07:10:16;;;;;;;3.83;3.53;;;12.90;99.90;;;13.95;100.00;97345.81;5112262;28;20673;-64
2023/04/23 07:12:50;;;;;;;3.60;3.30;;;13.00;99.90;;;13.88;100.00;97336.16;5116433;28;20739;-64
2023/04/23 07:15:23;;;;;;;4.05;3.58;;;13.00;99.90;;;14.20;100.00;97332.13;5115747;28;20590;-65
2023/04/23 07:17:58;;;;;;;3.95;3.65;;;13.20;99.90;;;14.70;100.00;97337.25;5112519;28;20220;-63
2023/04/23 07:20:31;;;;;;;3.83;3.50;;;13.60;99.90;;;15.03;97.83;97334.00;5136248;28;20231;-64
2023/04/23 07:23:05;;;;;;;3.60;3.30;;;13.80;99.90;;;15.21;95.59;97339.72;5114012;28;20205;-64
2023/04/23 07:25:38;;;;;;;3.95;3.65;;;14.00;99.90;;;15.18;95.13;97333.59;5117164;28;20242;-64
2023/04/23 07:28:11;;;;;;;3.10;2.90;;;14.10;99.90;;;15.07;95.25;97335.84;5113470;28;20232;-63
2023/04/23 07:30:44;;;;;;;3.10;2.80;;;14.00;99.90;;;15.12;95.65;97329.13;5117277;28;20207;-65
2023/04/23 07:33:19;;;;;;;2.60;2.50;;;14.10;99.90;;;15.13;94.87;97324.84;5115718;28;20202;-65
2023/04/23 07:35:52;;;;;;;2.80;2.60;;;14.00;99.90;;;15.04;93.47;97328.03;5111463;28;20208;-64
2023/04/23 07:38:25;;;;;;;2.90;2.70;;;14.00;99.90;;;14.98;93.67;97331.28;5115220;28;20225;-65
2023/04/23 07:40:58;;;;;;;2.88;2.67;;;13.90;99.90;;;15.05;90.54;97327.19;5112348;28;20205;-63
2023/04/23 07:43:31;;;;;;;2.42;2.22;;;14.00;99.90;;;14.91;93.37;97325.88;5115773;28;20201;-65
2023/04/23 07:46:04;;;;;;;2.90;2.70;;;13.90;99.90;;;14.79;93.77;97324.69;5114833;28;20212;-65
2023/04/23 07:48:39;;;;;;;3.13;2.72;;;13.80;99.90;;;14.77;94.75;97328.03;5114987;28;20236;-65
2023/04/23 07:51:12;;;;;;;2.92;2.70;;;13.80;99.90;;;14.83;94.39;97326.53;5120588;28;20245;-64
2023/04/23 07:53:47;;;;;;;2.95;2.75;;;13.80;99.90;;;14.90;94.08;97326.72;5113438;28;20205;-64
2023/04/23 07:56:23;;;;;;;2.92;2.65;;;13.90;99.90;;;14.96;94.17;97319.19;5113085;28;20860;-64
2023/04/23 07:58:57;;;;;;;2.80;2.55;;;13.90;99.90;;;14.95;94.91;97317.44;5111022;28;20216;-65
2023/04/23 08:01:30;;;;;;;2.80;2.55;;;14.00;99.90;;;15.03;94.11;97316.00;5110351;28;20660;-64
2023/04/23 08:04:04;;;;;;;2.58;2.38;;;14.00;99.90;;;15.17;92.70;97312.13;5110950;28;20210;-65
2023/04/23 08:06:38;;;;;;;2.55;2.20;;;14.10;99.90;;;15.31;91.57;97315.13;5112347;28;20244;-65
2023/04/23 08:09:11;;;;;;;2.33;2.10;;;14.30;99.90;;;15.33;90.07;97319.47;5110505;28;20224;-65
2023/04/23 08:11:45;;;;;;;2.10;2.00;;;14.30;99.90;;;15.37;88.93;97325.59;5107436;28;20217;-65
2023/04/23 08:14:18;;;;;;;2.22;2.13;;;14.30;99.90;;;15.44;87.81;97313.78;5110893;28;20212;-63
2023/04/23 08:16:51;;;;;;;2.13;2.00;;;14.40;99.90;;;15.50;87.09;97306.22;5109740;28;20679;-64
2023/04/23 08:19:30;;;;;;;2.25;2.15;;;14.40;99.90;;;15.62;85.71;97306.56;5105721;28;20661;-65
2023/04/23 08:22:03;;;;;;;2.50;2.40;;;14.50;99.90;;;15.79;85.77;97311.34;5113869;28;20620;-65
2023/04/23 08:24:36;;;;;;;2.33;2.10;;;14.60;99.90;;;16.17;81.20;97313.25;5111570;28;20213;-65
2023/04/23 08:27:10;;;;;;;1.52;1.52;;;15.00;99.90;;;16.21;78.81;97299.59;5110396;28;20204;-65
2023/04/23 08:29:43;;;;;;;1.85;1.75;;;15.00;99.90;;;16.40;76.14;97295.81;5105820;28;20239;-64
2023/04/23 08:32:16;;;;;;;1.77;1.60;;;15.10;99.90;;;16.38;77.04;97299.16;5111080;28;20220;-65
2023/04/23 08:34:50;;;;;;;1.70;1.60;;;15.20;99.90;;;16.73;78.78;97288.84;5110052;28;20204;-64
2023/04/23 08:37:24;;;;;;;1.45;1.35;;;15.60;99.90;;;17.07;74.03;97286.22;5110460;28;20274;-64
2023/04/23 08:40:04;;;;;;;1.70;1.60;;;16.00;99.90;;;17.15;72.81;97288.13;5106413;28;20215;-65
2023/04/23 08:42:43;;;;;;;1.55;1.45;;;16.10;99.90;;;17.16;71.31;97295.00;5106820;28;20207;-64
2023/04/23 08:45:16;;;;;;;1.52;1.42;;;16.00;99.90;;;17.25;68.87;97297.78;5107111;28;20208;-65
2023/04/23 08:47:50;;;;;;;1.35;1.25;;;16.00;99.90;;;17.51;64.87;97294.06;5108728;28;20727;-64
2023/04/23 08:50:25;;;;;;;1.58;1.48;;;16.20;99.90;;;17.37;67.94;97287.75;5117376;28;20216;-64
2023/04/23 08:52:58;;;;;;;1.23;1.20;;;16.20;99.90;;;17.42;67.31;97292.97;5113715;28;20204;-64
2023/04/23 08:55:34;;;;;;;1.42;1.33;;;16.20;99.90;;;17.47;68.20;97281.91;5111599;28;20576;-64
2023/04/23 08:58:07;;;;;;;1.63;1.52;;;16.40;99.90;;;17.85;70.07;97284.41;5115733;28;20581;-64
2023/04/23 09:00:41;;;;;;;1.77;1.67;;;16.70;99.90;;;18.27;68.35;97273.09;5111599;28;20213;-64
2023/04/23 09:03:15;;;;;;;2.28;1.52;;;17.10;99.90;;;18.57;64.40;97269.28;5114848;28;20299;-64
2023/04/23 09:05:51;;;;;;;1.35;1.35;;;17.40;99.90;;;18.67;61.79;97264.28;5112103;28;20211;-64
2023/04/23 09:08:25;;;;;;;1.70;1.60;;;17.60;99.90;;;18.50;62.35;97273.50;5112040;28;20251;-65
2023/04/23 09:11:01;;;;;;;1.50;1.40;;;17.40;99.90;;;18.67;60.47;97268.59;5111951;28;20706;-65
2023/04/23 09:13:36;;;;;;;1.70;1.60;;;17.40;99.90;;;18.63;59.15;97264.22;5113549;28;20240;-65
2023/04/23 09:16:09;;;;;;;3.13;2.92;;;17.50;99.90;;;18.19;60.74;97254.00;5112894;28;20211;-63
2023/04/23 09:18:42;;;;;;;2.28;1.90;;;17.10;99.90;;;18.10;61.74;97243.50;5110738;28;20226;-64
2023/04/23 09:21:17;;;;;;;2.58;1.63;;;17.30;99.90;;;18.30;63.48;97251.59;5104667;28;20209;-64
2023/04/23 09:23:51;;;;;;;1.67;1.58;;;17.60;99.90;;;18.64;61.92;97253.00;5108804;28;20219;-64
2023/04/23 09:26:25;;;;;;;1.55;1.45;;;17.80;99.90;;;18.77;62.49;97249.81;5115879;28;20590;-65
2023/04/23 09:28:58;;;;;;;1.52;1.42;;;17.90;99.90;;;19.01;60.41;97243.22;5115643;28;20236;-61
2023/04/23 09:31:31;;;;;;;1.70;1.60;;;18.10;99.90;;;19.26;54.75;97234.94;5108274;28;20277;-61
2023/04/23 09:34:07;;;;;;;1.30;1.30;;;18.30;99.90;;;19.34;55.19;97235.91;5115465;28;20285;-65
2023/04/23 09:36:42;;;;;;;1.45;1.30;;;18.60;99.90;;;19.48;55.27;97235.19;5113253;28;20212;-62
2023/04/23 09:39:17;;;;;;;1.45;1.35;;;18.60;99.90;;;19.31;55.27;97225.47;5115569;28;20228;-63
2023/04/23 09:41:52;;;;;;;1.08;1.08;;;18.40;99.90;;;19.44;55.60;97218.72;5112649;28;20208;-66
2023/04/23 09:44:28;;;;;;;1.80;1.30;;;18.50;99.90;;;19.53;55.72;97221.41;5113890;28;20207;-67
2023/04/23 09:47:08;;;;;;;1.30;1.20;;;18.70;99.90;;;19.69;53.07;97214.72;5114297;29;20200;-67
2023/04/23 09:49:49;;;;;;;1.50;1.40;;;19.00;99.90;;;19.68;52.85;97223.34;5112079;28;20307;-67
2023/04/23 09:52:23;;;;;;;1.20;1.20;;;19.00;99.90;;;19.78;52.17;97220.00;5108113;29;20281;-66
2023/04/23 09:54:58;;;;;;;1.42;1.33;;;19.10;99.90;;;19.89;51.90;97216.66;5112174;28;20220;-67
2023/04/23 09:57:36;;;;;;;1.42;1.33;;;19.20;99.90;;;19.98;50.80;97221.94;5109369;28;20231;-66
2023/04/23 10:00:19;;;;;;;1.20;1.20;;;19.30;99.40;;;19.83;49.73;97217.47;5110818;28;20680;-66
2023/04/23 10:02:53;;;;;;;1.58;1.48;;;19.20;98.30;;;19.66;51.16;97212.09;5111105;28;20205;-65
2023/04/23 10:05:27;;;;;;;1.10;1.00;;;19.30;98.60;;;19.68;51.39;97218.16;5111342;28;20204;-65
2023/04/23 10:08:19;;;;;;;1.25;1.15;;;19.20;98.90;;;19.62;53.01;97202.50;5112113;28;20775;-66
2023/04/23 10:10:52;;;;;;;1.48;1.38;;;19.10;99.70;;;19.68;51.32;97193.94;5115431;28;20215;-66
2023/04/23 10:13:42;;;;;;;1.48;1.38;;;19.20;98.90;;;19.75;50.88;97188.00;5114877;28;20201;-65
2023/04/23 10:16:15;;;;;;;1.33;1.33;;;19.10;98.70;;;19.70;49.05;97182.75;5113415;28;20299;-64
2023/04/23 10:19:02;;;;;;;1.33;1.23;;;19.10;97.20;;;19.73;51.29;97185.38;5112482;28;20231;-64
2023/04/23 10:21:35;;;;;;;1.77;1.38;;;19.20;98.90;;;19.70;50.07;97184.47;5118354;28;20208;-64
2023/04/23 10:24:27;;;;;;;1.50;1.40;;;19.10;97.80;;;19.74;48.89;97183.63;5117851;28;20201;-65
2023/04/23 10:27:02;;;;;;;1.13;1.10;;;19.10;97.10;;;19.89;48.45;97188.13;5113708;28;20208;-64
2023/04/23 10:29:36;;;;;;;1.58;1.33;;;19.10;97.00;;;19.73;47.82;97189.69;5117224;28;20694;-65
2023/04/23 10:32:09;;;;;;;1.35;1.35;;;19.10;96.00;;;19.46;48.33;97188.53;5113568;28;20340;-65
2023/04/23 10:34:42;;;;;;;1.40;1.30;;;19.00;96.30;;;19.41;48.04;97187.59;5118908;28;20209;-64
2023/04/23 10:37:18;;;;;;;2.22;1.23;;;19.00;95.70;;;19.28;47.50;97181.38;5117703;28;20594;-65
2023/04/23 10:39:56;;;;;;;1.38;1.30;;;18.70;95.20;;;19.54;48.28;97178.22;5119961;28;20283;-64
2023/04/23 10:42:29;;;;;;;1.40;1.30;;;18.90;96.10;;;19.78;47.51;97168.13;5118886;28;20208;-64
2023/04/23 10:45:11;;;;;;;1.30;1.30;;;19.20;95.60;;;19.89;47.57;97167.38;5120327;28;20215;-64